createdAt,value
2023-12-11T00:00:35.790Z,2.24
2023-12-11T00:03:26.976Z,2.27
2023-12-11T00:05:58.070Z,2.33
2023-12-11T00:08:29.190Z,2.38
2023-12-11T00:11:00.109Z,2.42
2023-12-11T00:13:31.260Z,2.45
2023-12-11T00:16:02.322Z,2.49
2023-12-11T00:18:33.340Z,2.50
2023-12-11T00:21:04.513Z,2.50
2023-12-11T00:23:35.769Z,2.46
2023-12-11T00:26:07.005Z,2.48
2023-12-11T00:28:38.018Z,2.50
2023-12-11T00:31:13.088Z,2.52
2023-12-11T00:33:46.749Z,2.49
2023-12-11T00:36:17.777Z,2.44
2023-12-11T00:38:49.300Z,2.44
2023-12-11T00:41:20.295Z,2.42
2023-12-11T00:43:51.914Z,2.42
2023-12-11T00:46:23.704Z,2.43
2023-12-11T00:48:55.157Z,2.35
2023-12-11T00:51:26.305Z,2.22
2023-12-11T00:53:57.356Z,2.16
2023-12-11T00:56:28.250Z,2.20
2023-12-11T00:58:59.251Z,2.23
2023-12-11T01:01:30.358Z,2.26
2023-12-11T01:04:01.602Z,2.33
2023-12-11T01:06:32.779Z,2.38
2023-12-11T01:09:03.831Z,2.40
2023-12-11T01:11:34.727Z,2.40
2023-12-11T01:14:05.749Z,2.39
2023-12-11T01:16:36.870Z,2.41
2023-12-11T01:19:09.190Z,2.39
2023-12-11T01:21:40.369Z,2.35
2023-12-11T01:24:11.467Z,2.34
2023-12-11T01:26:42.733Z,2.33
2023-12-11T01:29:13.688Z,2.33
2023-12-11T01:31:45.022Z,2.34
2023-12-11T01:34:16.485Z,2.36
2023-12-11T01:36:47.661Z,2.37
2023-12-11T01:39:18.881Z,2.35
2023-12-11T01:41:49.887Z,2.33
2023-12-11T01:44:21.171Z,2.31
2023-12-11T01:46:52.311Z,2.26
2023-12-11T01:49:23.348Z,2.26
2023-12-11T01:51:54.415Z,2.28
2023-12-11T01:54:25.514Z,2.29
2023-12-11T01:56:56.643Z,2.29
2023-12-11T01:59:30.135Z,2.29
2023-12-11T02:02:01.282Z,2.30
2023-12-11T02:04:32.453Z,2.29
2023-12-11T02:07:04.238Z,2.31
2023-12-11T02:09:35.386Z,2.31
2023-12-11T02:12:06.865Z,2.29
2023-12-11T02:14:37.942Z,2.30
2023-12-11T02:17:10.825Z,2.33
2023-12-11T02:19:42.146Z,2.32
2023-12-11T02:22:13.674Z,2.35
2023-12-11T02:24:47.957Z,2.37
2023-12-11T02:27:18.940Z,2.40
2023-12-11T02:29:51.598Z,2.41
2023-12-11T02:32:22.587Z,2.41
2023-12-11T02:34:54.644Z,2.44
2023-12-11T02:37:25.895Z,2.44
2023-12-11T02:39:57.105Z,2.45
2023-12-11T02:42:28.380Z,2.44
2023-12-11T02:44:59.477Z,2.45
2023-12-11T02:47:31.009Z,2.44
2023-12-11T02:50:02.282Z,2.48
2023-12-11T02:52:33.358Z,2.49
2023-12-11T02:55:06.650Z,2.50
2023-12-11T02:57:37.917Z,2.48
2023-12-11T03:00:10.572Z,2.50
2023-12-11T03:02:41.845Z,2.45
2023-12-11T03:05:13.033Z,2.47
2023-12-11T03:07:44.104Z,2.47
2023-12-11T03:10:15.283Z,2.53
2023-12-11T03:12:46.637Z,2.58
2023-12-11T03:15:17.875Z,2.62
2023-12-11T03:17:49.942Z,2.65
2023-12-11T03:20:21.197Z,2.68
2023-12-11T03:22:52.400Z,2.72
2023-12-11T03:25:23.725Z,2.75
2023-12-11T03:27:54.943Z,2.76
2023-12-11T03:30:26.295Z,2.75
2023-12-11T03:32:57.549Z,2.78
2023-12-11T03:35:28.497Z,2.79
2023-12-11T03:38:00.893Z,2.80
2023-12-11T03:40:32.199Z,2.77
2023-12-11T03:43:04.029Z,2.73
2023-12-11T03:45:35.284Z,2.74
2023-12-11T03:48:07.178Z,2.71
2023-12-11T03:50:39.537Z,2.77
2023-12-11T03:53:11.757Z,2.80
2023-12-11T03:55:49.829Z,2.76
2023-12-11T03:58:21.126Z,2.74
2023-12-11T04:00:52.291Z,2.76
2023-12-11T04:03:23.744Z,2.76
2023-12-11T04:05:54.956Z,2.77
2023-12-11T04:08:26.112Z,2.78
2023-12-11T04:10:57.474Z,2.81
2023-12-11T04:13:28.939Z,2.78
2023-12-11T04:16:00.261Z,2.76
2023-12-11T04:18:31.661Z,2.74
2023-12-11T04:21:02.911Z,2.73
2023-12-11T04:23:36.814Z,2.74
2023-12-11T04:26:08.192Z,2.78
2023-12-11T04:28:39.249Z,2.79
2023-12-11T04:31:10.677Z,2.78
2023-12-11T04:33:41.866Z,2.75
2023-12-11T04:36:13.276Z,2.76
2023-12-11T04:38:44.936Z,2.75
2023-12-11T04:41:16.189Z,2.73
2023-12-11T04:43:47.751Z,2.72
2023-12-11T04:46:19.106Z,2.69
2023-12-11T04:48:50.233Z,2.66
2023-12-11T04:51:21.257Z,2.64
2023-12-11T04:53:53.438Z,2.62
2023-12-11T04:56:26.716Z,2.59
2023-12-11T04:58:57.732Z,2.51
2023-12-11T05:01:29.135Z,2.44
2023-12-11T05:04:01.071Z,2.44
2023-12-11T05:06:32.592Z,2.42
2023-12-11T05:09:03.798Z,2.45
2023-12-11T05:11:35.054Z,2.45
2023-12-11T05:14:06.325Z,2.44
2023-12-11T05:16:38.267Z,2.44
2023-12-11T05:19:09.775Z,2.43
2023-12-11T05:21:41.606Z,2.46
2023-12-11T05:24:12.647Z,2.45
2023-12-11T05:26:43.750Z,2.43
2023-12-11T05:29:14.856Z,2.46
2023-12-11T05:31:45.973Z,2.49
2023-12-11T05:34:17.970Z,2.49
2023-12-11T05:36:49.447Z,2.50
2023-12-11T05:39:20.844Z,2.49
2023-12-11T05:41:51.731Z,2.49
2023-12-11T05:44:22.575Z,2.49
2023-12-11T05:46:53.638Z,2.51
2023-12-11T05:49:24.690Z,2.50
2023-12-11T05:51:57.754Z,2.52
2023-12-11T05:54:28.819Z,2.50
2023-12-11T05:56:59.956Z,2.47
2023-12-11T05:59:30.875Z,2.51
2023-12-11T06:02:02.251Z,2.55
2023-12-11T06:04:34.582Z,2.53
2023-12-11T06:07:06.308Z,2.48
2023-12-11T06:09:37.309Z,2.50
2023-12-11T06:12:10.161Z,2.55
2023-12-11T06:14:46.146Z,2.62
2023-12-11T06:17:19.368Z,2.71
2023-12-11T06:19:50.985Z,2.74
2023-12-11T06:22:22.963Z,2.74
2023-12-11T06:24:54.112Z,2.80
2023-12-11T06:27:27.566Z,2.83
2023-12-11T06:29:59.513Z,2.83
2023-12-11T06:32:33.122Z,2.84
2023-12-11T06:35:05.609Z,2.87
2023-12-11T06:37:38.805Z,2.84
2023-12-11T06:40:11.756Z,2.90
2023-12-11T06:42:43.524Z,3.02
2023-12-11T06:45:14.460Z,3.03
2023-12-11T06:47:46.523Z,3.11
2023-12-11T06:50:21.566Z,3.21
2023-12-11T06:52:53.494Z,3.30
2023-12-11T06:55:24.846Z,3.38
2023-12-11T06:57:56.616Z,3.45
2023-12-11T07:00:28.195Z,3.52
2023-12-11T07:03:00.522Z,3.58
2023-12-11T07:05:32.373Z,3.64
2023-12-11T07:08:04.548Z,3.66
2023-12-11T07:10:39.163Z,3.70
2023-12-11T07:13:11.655Z,3.72
2023-12-11T07:15:46.267Z,3.70
2023-12-11T07:18:17.632Z,3.69
2023-12-11T07:20:49.327Z,3.65
2023-12-11T07:23:22.551Z,3.60
2023-12-11T07:25:54.639Z,3.59
2023-12-11T07:28:25.645Z,3.58
2023-12-11T07:37:56.126Z,3.61
2023-12-11T07:40:32.700Z,3.64
2023-12-11T07:43:03.829Z,3.70
2023-12-11T07:45:34.925Z,3.75
2023-12-11T07:48:06.460Z,3.81
2023-12-11T07:50:37.391Z,3.88
2023-12-11T07:53:08.363Z,3.95
2023-12-11T07:55:39.271Z,3.99
2023-12-11T07:58:12.021Z,4.01
2023-12-11T08:00:44.952Z,4.00
2023-12-11T08:03:18.083Z,4.01
2023-12-11T08:05:49.072Z,4.02
2023-12-11T08:08:20.181Z,4.01
2023-12-11T08:10:51.302Z,4.01
2023-12-11T08:13:22.391Z,4.06
2023-12-11T08:15:55.690Z,4.13
2023-12-11T08:18:36.463Z,4.19
2023-12-11T08:21:08.286Z,4.22
2023-12-11T08:23:39.364Z,4.28
2023-12-11T08:26:10.548Z,4.32
2023-12-11T08:28:41.713Z,4.32
2023-12-11T08:31:12.988Z,4.34
2023-12-11T08:33:44.274Z,4.28
2023-12-11T08:36:35.376Z,4.27
2023-12-11T08:39:06.680Z,4.22
2023-12-11T08:41:37.804Z,4.16
2023-12-11T08:44:08.850Z,4.06
2023-12-11T08:46:40.087Z,3.96
2023-12-11T08:49:11.496Z,3.94
2023-12-11T08:51:43.503Z,3.95
2023-12-11T08:54:14.698Z,4.02
2023-12-11T08:56:45.574Z,4.05
2023-12-11T08:59:17.359Z,4.02
2023-12-11T09:01:48.501Z,4.02
2023-12-11T09:04:19.793Z,3.94
2023-12-11T09:06:50.840Z,3.88
2023-12-11T09:09:21.820Z,3.86
2023-12-11T09:11:53.126Z,3.85
2023-12-11T09:14:24.168Z,3.83
2023-12-11T09:16:55.678Z,3.86
2023-12-11T09:19:51.137Z,3.89
2023-12-11T09:22:26.516Z,3.95
2023-12-11T09:24:57.504Z,3.96
2023-12-11T09:27:28.855Z,3.92
2023-12-11T09:30:00.468Z,3.90
2023-12-11T09:32:31.774Z,3.90
2023-12-11T09:35:03.075Z,3.94
2023-12-11T09:37:34.372Z,3.93
2023-12-11T09:40:06.799Z,3.95
2023-12-11T09:42:39.517Z,3.98
2023-12-11T09:45:11.771Z,3.99
2023-12-11T09:47:45.757Z,4.01
2023-12-11T09:50:16.935Z,3.94
2023-12-11T09:52:47.905Z,3.93
2023-12-11T09:55:19.123Z,3.88
2023-12-11T09:57:50.568Z,3.73
2023-12-11T10:00:21.828Z,3.70
2023-12-11T10:02:53.878Z,3.72
2023-12-11T10:05:28.174Z,3.72
2023-12-11T10:07:59.398Z,3.70
2023-12-11T10:10:33.170Z,3.66
2023-12-11T10:13:04.943Z,3.63
2023-12-11T10:15:37.428Z,3.66
2023-12-11T10:18:10.043Z,3.76
2023-12-11T10:20:41.842Z,3.86
2023-12-11T10:23:17.467Z,3.95
2023-12-11T10:25:50.313Z,3.97
2023-12-11T10:28:22.704Z,3.94
2023-12-11T10:30:55.326Z,3.92
2023-12-11T10:33:27.407Z,3.95
2023-12-11T10:36:10.369Z,4.03
2023-12-11T10:38:41.364Z,4.13
2023-12-11T10:41:12.457Z,4.21
2023-12-11T10:43:56.151Z,4.29
2023-12-11T10:46:34.640Z,4.27
2023-12-11T10:49:05.661Z,4.24
2023-12-11T10:51:38.154Z,4.34
2023-12-11T10:54:09.583Z,4.45
2023-12-11T10:56:40.487Z,4.54
2023-12-11T10:59:11.641Z,4.61
2023-12-11T11:01:42.737Z,4.60
2023-12-11T11:04:13.875Z,4.61
2023-12-11T11:06:48.080Z,4.62
2023-12-11T11:09:21.126Z,4.60
2023-12-11T11:11:54.169Z,4.53
2023-12-11T11:14:39.509Z,4.56
2023-12-11T11:17:11.070Z,4.61
2023-12-11T11:19:47.762Z,4.65
2023-12-11T11:22:32.434Z,4.67
2023-12-11T11:25:26.757Z,4.62
2023-12-11T11:27:58.254Z,4.56
2023-12-11T11:30:52.963Z,4.56
2023-12-11T11:33:24.282Z,4.63
2023-12-11T11:35:55.848Z,4.65
2023-12-11T11:38:40.170Z,4.63
2023-12-11T11:41:14.191Z,4.71
2023-12-11T11:43:48.817Z,4.70
2023-12-11T11:46:19.763Z,4.66
2023-12-11T11:48:50.814Z,4.68
2023-12-11T11:51:22.517Z,4.75
2023-12-11T11:53:55.909Z,4.80
2023-12-11T11:56:26.833Z,4.81
2023-12-11T11:59:06.476Z,4.82
2023-12-11T12:01:37.560Z,4.82
2023-12-11T12:04:08.533Z,4.82
2023-12-11T12:06:39.511Z,4.83
2023-12-11T12:09:10.571Z,4.83
2023-12-11T12:11:41.508Z,4.84
2023-12-11T12:14:15.201Z,4.87
2023-12-11T12:16:46.138Z,4.88
2023-12-11T12:19:21.805Z,4.87
2023-12-11T12:21:55.965Z,4.87
2023-12-11T12:24:27.393Z,4.89
2023-12-11T12:27:00.424Z,4.93
2023-12-11T12:29:31.920Z,4.93
2023-12-11T12:32:02.884Z,4.85
2023-12-11T12:34:34.941Z,4.80
2023-12-11T12:37:06.462Z,4.80
2023-12-11T12:39:37.864Z,4.76
2023-12-11T12:42:08.946Z,4.69
2023-12-11T12:44:42.460Z,4.69
2023-12-11T12:47:13.458Z,4.72
2023-12-11T12:49:47.285Z,4.73
2023-12-11T12:52:25.332Z,4.72
2023-12-11T12:54:57.247Z,4.76
2023-12-11T12:57:28.445Z,4.83
2023-12-11T12:59:59.603Z,4.86
2023-12-11T13:02:33.126Z,4.83
2023-12-11T13:05:06.350Z,4.77
2023-12-11T13:07:37.294Z,4.71
2023-12-11T13:10:11.869Z,4.69
2023-12-11T13:12:42.973Z,4.68
2023-12-11T13:15:14.274Z,4.71
2023-12-11T13:17:46.491Z,4.73
2023-12-11T13:20:17.885Z,4.78
2023-12-11T13:22:49.644Z,4.75
2023-12-11T13:25:20.731Z,4.74
2023-12-11T13:27:51.694Z,4.78
2023-12-11T13:30:23.819Z,4.78
2023-12-11T13:32:55.128Z,4.77
2023-12-11T13:35:26.153Z,4.77
2023-12-11T13:37:57.197Z,4.75
2023-12-11T13:40:29.862Z,4.69
2023-12-11T13:43:01.518Z,4.63
2023-12-11T13:45:32.581Z,4.55
2023-12-11T13:48:03.760Z,4.53
2023-12-11T13:50:34.762Z,4.47
2023-12-11T13:53:06.172Z,4.49
2023-12-11T13:55:37.352Z,4.55
2023-12-11T13:58:08.308Z,4.53
2023-12-11T14:00:39.444Z,4.43
2023-12-11T14:03:10.771Z,4.39
2023-12-11T14:05:42.182Z,4.40
2023-12-11T14:08:14.717Z,4.38
2023-12-11T14:10:47.191Z,4.40
2023-12-11T14:13:18.165Z,4.45
2023-12-11T14:15:49.273Z,4.48
2023-12-11T14:18:22.491Z,4.49
2023-12-11T14:20:53.664Z,4.52
2023-12-11T14:23:24.789Z,4.53
2023-12-11T14:25:56.313Z,4.51
2023-12-11T14:28:27.498Z,4.48
2023-12-11T14:30:58.821Z,4.45
2023-12-11T14:33:29.903Z,4.48
2023-12-11T14:36:02.513Z,4.46
2023-12-11T14:38:35.190Z,4.42
2023-12-11T14:41:12.064Z,4.37
2023-12-11T14:43:44.956Z,4.34
2023-12-11T14:46:16.019Z,4.28
2023-12-11T14:48:47.191Z,4.26
2023-12-11T14:51:18.534Z,4.29
2023-12-11T14:53:50.804Z,4.28
2023-12-11T14:56:22.366Z,4.30
2023-12-11T14:58:53.487Z,4.36
2023-12-11T15:01:24.841Z,4.48
2023-12-11T15:03:56.118Z,4.51
2023-12-11T15:06:27.403Z,4.55
2023-12-11T15:08:58.544Z,4.61
2023-12-11T15:11:34.612Z,4.64
2023-12-11T15:14:06.878Z,4.65
2023-12-11T15:16:40.826Z,4.64
2023-12-11T15:19:11.981Z,4.64
2023-12-11T15:21:43.062Z,4.63
2023-12-11T15:24:14.226Z,4.61
2023-12-11T15:26:45.244Z,4.57
2023-12-11T15:29:16.461Z,4.53
2023-12-11T15:31:47.498Z,4.51
2023-12-11T15:34:18.814Z,4.55
2023-12-11T15:36:50.197Z,4.56
2023-12-11T15:39:24.004Z,4.52
2023-12-11T15:41:55.365Z,4.49
2023-12-11T15:44:27.128Z,4.48
2023-12-11T15:46:58.154Z,4.43
2023-12-11T15:49:29.144Z,4.35
2023-12-11T15:52:00.327Z,4.30
2023-12-11T15:54:31.735Z,4.28
2023-12-11T15:57:02.755Z,4.30
2023-12-11T15:59:33.976Z,4.36
2023-12-11T16:02:05.421Z,4.44
2023-12-11T16:04:36.491Z,4.55
2023-12-11T16:07:08.898Z,4.59
2023-12-11T16:09:39.973Z,4.55
2023-12-11T16:12:11.213Z,4.51
2023-12-11T16:14:43.938Z,4.48
2023-12-11T16:17:17.969Z,4.49
2023-12-11T16:19:51.124Z,4.48
2023-12-11T16:22:22.971Z,4.45
2023-12-11T16:24:54.835Z,4.44
2023-12-11T16:27:25.815Z,4.39
2023-12-11T16:29:56.770Z,4.34
2023-12-11T16:32:28.002Z,4.36
2023-12-11T16:35:00.420Z,4.32
2023-12-11T16:37:31.482Z,4.28
2023-12-11T16:40:06.543Z,4.27
2023-12-11T16:42:37.717Z,4.22
2023-12-11T16:45:09.571Z,4.19
2023-12-11T16:47:45.283Z,4.24
2023-12-11T16:50:16.508Z,4.26
2023-12-11T16:52:47.752Z,4.28
2023-12-11T16:55:19.058Z,4.31
2023-12-11T16:57:50.633Z,4.30
2023-12-11T17:00:22.137Z,4.30
2023-12-11T17:02:53.338Z,4.36
2023-12-11T17:05:26.512Z,4.41
2023-12-11T17:07:59.113Z,4.39
2023-12-11T17:10:32.794Z,4.32
2023-12-11T17:13:04.038Z,4.29
2023-12-11T17:15:35.091Z,4.21
2023-12-11T17:18:06.854Z,4.13
2023-12-11T17:20:38.259Z,4.12
2023-12-11T17:23:09.746Z,4.14
2023-12-11T17:25:45.443Z,4.19
2023-12-11T17:28:18.497Z,4.18
2023-12-11T17:30:53.793Z,4.18
2023-12-11T17:33:29.720Z,4.17
2023-12-11T17:36:05.071Z,4.11
2023-12-11T17:38:37.167Z,4.07
2023-12-11T17:41:10.639Z,4.10
2023-12-11T17:43:44.007Z,4.18
2023-12-11T17:46:19.227Z,4.23
2023-12-11T17:48:54.840Z,4.29
2023-12-11T17:51:30.826Z,4.32
2023-12-11T17:54:02.537Z,4.36
2023-12-11T17:56:38.169Z,4.41
2023-12-11T17:59:16.707Z,4.43
2023-12-11T18:01:49.856Z,4.44
2023-12-11T18:04:24.837Z,4.46
2023-12-11T18:10:27.655Z,4.50
2023-12-11T18:13:02.394Z,4.51
2023-12-11T18:15:41.990Z,4.53
2023-12-11T18:18:17.465Z,4.52
2023-12-11T18:20:51.305Z,4.49
2023-12-11T18:23:27.968Z,4.46
2023-12-11T18:25:59.934Z,4.42
2023-12-11T18:28:31.075Z,4.40
2023-12-11T18:31:05.423Z,4.37
2023-12-11T18:33:39.395Z,4.30
2023-12-11T18:36:14.244Z,4.27
2023-12-11T18:38:54.272Z,4.27
2023-12-11T18:41:32.481Z,4.28
2023-12-11T18:44:07.109Z,4.28
2023-12-11T18:46:49.137Z,4.27
2023-12-11T18:49:20.474Z,4.27
2023-12-11T18:52:05.776Z,4.28
2023-12-11T18:54:38.422Z,4.27
2023-12-11T18:57:20.199Z,4.28
2023-12-11T19:00:16.289Z,4.27
2023-12-11T19:02:55.021Z,4.26
2023-12-11T19:05:33.687Z,4.25
2023-12-11T19:08:07.320Z,4.21
2023-12-11T19:10:39.751Z,4.16
2023-12-11T19:13:19.303Z,4.14
2023-12-11T19:15:50.747Z,4.11
2023-12-11T19:18:26.209Z,4.08
2023-12-11T19:24:47.974Z,4.03
2023-12-11T19:27:30.178Z,4.06
2023-12-11T19:30:17.048Z,4.08
2023-12-11T19:32:54.658Z,4.10
2023-12-11T19:35:36.260Z,4.11
2023-12-11T19:38:07.324Z,4.11
2023-12-11T19:40:41.691Z,4.09
2023-12-11T19:43:20.458Z,4.05
2023-12-11T19:46:00.365Z,4.03
2023-12-11T19:48:37.593Z,4.00
2023-12-11T19:51:18.538Z,3.95
2023-12-11T19:53:52.516Z,3.88
2023-12-11T19:56:31.796Z,3.81
2023-12-11T19:59:04.518Z,3.82
2023-12-11T20:01:43.985Z,3.79
2023-12-11T20:04:21.223Z,3.80
2023-12-11T20:06:52.771Z,3.82
2023-12-11T20:09:26.329Z,3.85
2023-12-11T20:12:07.541Z,3.85
2023-12-11T20:14:45.187Z,3.80
2023-12-11T20:17:21.461Z,3.74
2023-12-11T20:20:01.266Z,3.68
2023-12-11T20:22:33.803Z,3.61
2023-12-11T20:25:08.650Z,3.61
2023-12-11T20:27:44.595Z,3.63
2023-12-11T20:30:17.538Z,3.63
2023-12-11T20:32:51.067Z,3.66
2023-12-11T20:35:24.313Z,3.70
2023-12-11T20:37:55.406Z,3.74
2023-12-11T20:40:26.450Z,3.76
2023-12-11T20:43:00.733Z,3.77
2023-12-11T20:45:32.327Z,3.78
2023-12-11T20:48:07.452Z,3.77
2023-12-11T20:50:38.552Z,3.76
2023-12-11T20:53:12.035Z,3.74
2023-12-11T20:55:47.128Z,3.72
2023-12-11T20:58:21.433Z,3.69
2023-12-11T21:00:55.529Z,3.69
2023-12-11T21:03:31.732Z,3.71
2023-12-11T21:06:07.320Z,3.63
2023-12-11T21:08:45.226Z,3.48
2023-12-11T21:11:19.632Z,3.39
2023-12-11T21:13:51.152Z,3.27
2023-12-11T21:16:31.401Z,3.22
2023-12-11T21:19:04.070Z,3.21
2023-12-11T21:21:37.192Z,3.20
2023-12-11T21:24:12.917Z,3.16
2023-12-11T21:26:48.489Z,3.12
2023-12-11T21:29:26.941Z,3.09
2023-12-11T21:32:01.202Z,3.11
2023-12-11T21:34:34.490Z,3.14
2023-12-11T21:37:08.928Z,3.12
2023-12-11T21:39:42.709Z,3.17
2023-12-11T21:42:16.515Z,3.22
2023-12-11T21:44:50.684Z,3.19
2023-12-11T21:47:24.808Z,3.22
2023-12-11T21:49:56.377Z,3.27
2023-12-11T21:52:33.399Z,3.25
2023-12-11T21:55:10.740Z,3.24
2023-12-11T21:57:48.275Z,3.25
2023-12-11T22:00:19.928Z,3.32
2023-12-11T22:02:51.368Z,3.23
2023-12-11T22:05:24.651Z,3.10
2023-12-11T22:07:57.989Z,3.04
2023-12-11T22:10:33.481Z,3.05
2023-12-11T22:13:06.926Z,3.10
2023-12-11T22:15:43.316Z,3.16
2023-12-11T22:18:14.722Z,3.17
2023-12-11T22:20:52.140Z,3.26
2023-12-11T22:23:27.127Z,3.29
2023-12-11T22:26:00.925Z,3.24
2023-12-11T22:28:35.930Z,3.24
2023-12-11T22:31:07.890Z,3.32
2023-12-11T22:33:43.197Z,3.41
2023-12-11T22:36:24.989Z,3.49
2023-12-11T22:38:56.095Z,3.56
2023-12-11T22:41:34.769Z,3.60
2023-12-11T22:44:06.665Z,3.54
2023-12-11T22:46:42.386Z,3.47
2023-12-11T22:49:14.627Z,3.47
2023-12-11T22:51:52.778Z,3.50
2023-12-11T22:54:28.880Z,3.51
2023-12-11T22:57:01.668Z,3.51
2023-12-11T22:59:32.849Z,3.43
2023-12-11T23:02:11.092Z,3.40
2023-12-11T23:04:44.745Z,3.32
2023-12-11T23:07:47.496Z,3.29
2023-12-11T23:10:25.766Z,3.24
2023-12-11T23:12:56.892Z,3.23
2023-12-11T23:15:31.174Z,3.28
2023-12-11T23:18:02.312Z,3.32
2023-12-11T23:20:33.393Z,3.24
2023-12-11T23:23:04.494Z,3.23
2023-12-11T23:25:37.220Z,3.23
2023-12-11T23:28:10.434Z,3.12
2023-12-11T23:30:42.672Z,3.03
2023-12-11T23:33:13.934Z,3.02
2023-12-11T23:35:44.995Z,3.06
2023-12-11T23:38:16.864Z,3.04
2023-12-11T23:40:47.922Z,2.97
2023-12-11T23:43:18.936Z,2.94
2023-12-11T23:45:49.988Z,2.85
2023-12-11T23:48:21.217Z,2.76
2023-12-11T23:50:52.857Z,2.69
2023-12-11T23:53:23.879Z,2.74
2023-12-11T23:55:54.905Z,2.80
2023-12-11T23:58:26.023Z,2.83
